createdAt,value
2017-11-08T00:02:19.482Z,35.53
2017-11-08T00:04:46.082Z,37.87
2017-11-08T00:07:12.667Z,33.90
2017-11-08T00:09:39.251Z,34.00
2017-11-08T00:12:05.850Z,34.13
2017-11-08T00:14:32.442Z,30.40
2017-11-08T00:16:59.038Z,34.43
2017-11-08T00:19:25.629Z,34.50
2017-11-08T00:21:52.233Z,32.27
2017-11-08T00:24:26.327Z,34.43
2017-11-08T00:26:52.921Z,32.83
2017-11-08T00:29:19.510Z,34.03
2017-11-08T00:31:46.093Z,39.90
2017-11-08T00:34:12.681Z,34.20
2017-11-08T00:36:39.277Z,35.17
2017-11-08T00:39:05.882Z,33.40
2017-11-08T00:41:32.490Z,34.87
2017-11-08T00:43:59.071Z,35.33
2017-11-08T00:46:25.676Z,32.23
2017-11-08T00:48:52.273Z,33.87
2017-11-08T00:51:18.866Z,30.87
2017-11-08T00:53:45.454Z,30.67
2017-11-08T00:56:12.038Z,39.77
2017-11-08T00:58:38.622Z,34.80
2017-11-08T01:01:05.233Z,34.40
2017-11-08T01:03:31.839Z,30.90
2017-11-08T01:05:58.410Z,38.33
2017-11-08T01:08:24.998Z,31.27
2017-11-08T01:10:51.589Z,36.10
2017-11-08T01:13:18.181Z,31.00
2017-11-08T01:15:44.766Z,35.17
2017-11-08T01:18:11.357Z,32.00
2017-11-08T01:20:37.950Z,32.87
2017-11-08T01:23:04.537Z,36.60
2017-11-08T01:25:31.153Z,31.07
2017-11-08T01:27:57.743Z,39.53
2017-11-08T01:30:24.338Z,39.27
2017-11-08T01:32:50.927Z,35.60
2017-11-08T01:35:17.516Z,33.47
2017-11-08T01:37:47.013Z,32.30
2017-11-08T01:40:14.509Z,36.20
2017-11-08T01:42:41.106Z,31.83
2017-11-08T01:45:07.689Z,34.03
2017-11-08T01:47:34.291Z,36.47
2017-11-08T01:50:02.690Z,35.63
2017-11-08T01:52:29.278Z,33.90
2017-11-08T01:54:55.878Z,36.70
2017-11-08T01:57:22.462Z,34.67
2017-11-08T01:59:49.065Z,34.13
2017-11-08T02:02:15.638Z,33.07
2017-11-08T02:04:42.229Z,30.53
2017-11-08T02:07:08.822Z,30.40
2017-11-08T02:09:35.428Z,34.30
2017-11-08T02:12:02.018Z,32.83
2017-11-08T02:14:28.605Z,38.97
2017-11-08T02:16:55.198Z,35.57
2017-11-08T02:19:21.797Z,33.53
2017-11-08T02:21:48.401Z,35.83
2017-11-08T02:24:14.982Z,34.07
2017-11-08T02:26:41.598Z,32.20
2017-11-08T02:29:08.183Z,32.30
2017-11-08T02:31:34.761Z,36.67
2017-11-08T02:34:01.361Z,32.80
2017-11-08T02:36:27.954Z,37.10
2017-11-08T02:38:54.553Z,33.57
2017-11-08T02:41:21.141Z,32.70
2017-11-08T02:43:47.742Z,33.67
2017-11-08T02:46:19.958Z,33.43
2017-11-08T02:48:46.560Z,33.60
2017-11-08T02:51:13.138Z,31.90
2017-11-08T02:53:39.726Z,32.67
2017-11-08T02:56:06.318Z,29.90
2017-11-08T02:58:32.898Z,30.97
2017-11-08T03:00:59.544Z,34.47
2017-11-08T03:03:26.131Z,35.27
2017-11-08T03:05:52.713Z,29.57
2017-11-08T03:08:19.302Z,35.33
2017-11-08T03:10:45.890Z,35.60
2017-11-08T03:13:12.486Z,37.30
2017-11-08T03:15:39.070Z,33.53
2017-11-08T03:18:05.682Z,41.03
2017-11-08T03:20:32.281Z,35.37
2017-11-08T03:22:58.863Z,32.13
2017-11-08T03:25:25.451Z,28.80
2017-11-08T03:27:52.043Z,36.60
2017-11-08T03:30:18.654Z,35.13
2017-11-08T03:32:45.242Z,30.60
2017-11-08T03:35:11.854Z,34.10
2017-11-08T03:37:38.445Z,33.40
2017-11-08T03:40:05.034Z,34.67
2017-11-08T03:42:31.627Z,33.10
2017-11-08T03:44:58.218Z,34.27
2017-11-08T03:47:24.814Z,35.20
2017-11-08T03:49:51.400Z,32.33
2017-11-08T03:52:18.009Z,31.63
2017-11-08T03:54:44.597Z,35.97
2017-11-08T03:57:11.182Z,33.63
2017-11-08T03:59:37.778Z,34.33
2017-11-08T04:02:04.362Z,37.40
2017-11-08T04:04:30.949Z,30.63
2017-11-08T04:06:57.546Z,31.70
2017-11-08T04:09:24.146Z,35.17
2017-11-08T04:11:50.730Z,31.23
2017-11-08T04:14:17.319Z,36.40
2017-11-08T04:16:43.910Z,31.20
2017-11-08T04:19:10.494Z,30.30
2017-11-08T04:21:37.081Z,33.87
2017-11-08T04:24:03.677Z,33.47
2017-11-08T04:26:30.262Z,33.67
2017-11-08T04:28:56.857Z,37.07
2017-11-08T04:31:23.445Z,31.83
2017-11-08T04:33:50.045Z,34.53
2017-11-08T04:36:16.637Z,31.13
2017-11-08T04:38:43.221Z,34.10
2017-11-08T04:41:09.854Z,36.10
2017-11-08T04:43:36.437Z,34.70
2017-11-08T04:46:03.041Z,34.30
2017-11-08T04:48:29.622Z,36.70
2017-11-08T04:50:56.212Z,30.83
2017-11-08T04:53:22.805Z,35.77
2017-11-08T04:55:49.378Z,34.87
2017-11-08T04:58:15.978Z,35.10
2017-11-08T05:00:42.565Z,33.33
2017-11-08T05:03:09.164Z,31.10
2017-11-08T05:05:35.741Z,37.40
2017-11-08T05:08:02.335Z,32.47
2017-11-08T05:10:28.933Z,34.30
2017-11-08T05:12:55.517Z,31.63
2017-11-08T05:15:22.106Z,37.53
2017-11-08T05:17:48.701Z,38.37
2017-11-08T05:20:15.286Z,32.90
2017-11-08T05:22:42.009Z,34.47
2017-11-08T05:25:08.593Z,40.07
2017-11-08T05:27:35.170Z,34.30
2017-11-08T05:30:01.763Z,33.80
2017-11-08T05:32:28.342Z,35.33
2017-11-08T05:34:54.930Z,34.87
2017-11-08T05:37:21.518Z,37.87
2017-11-08T05:39:48.117Z,38.60
2017-11-08T05:42:14.719Z,32.73
2017-11-08T05:44:41.292Z,36.47
2017-11-08T05:47:07.901Z,32.30
2017-11-08T05:49:34.493Z,31.10
2017-11-08T05:52:01.086Z,34.13
2017-11-08T05:54:27.677Z,37.43
2017-11-08T05:56:54.261Z,31.27
2017-11-08T05:59:20.862Z,33.40
2017-11-08T06:01:47.445Z,35.33
2017-11-08T06:04:14.038Z,38.83
2017-11-08T06:06:40.635Z,32.47
2017-11-08T06:09:07.223Z,36.07
2017-11-08T06:11:33.826Z,38.07
2017-11-08T06:14:00.419Z,33.20
2017-11-08T06:16:27.017Z,34.20
2017-11-08T06:18:53.608Z,34.60
2017-11-08T06:21:20.190Z,37.57
2017-11-08T06:23:46.791Z,34.60
2017-11-08T06:26:14.754Z,34.90
2017-11-08T06:28:41.357Z,32.27
2017-11-08T06:31:07.945Z,32.80
2017-11-08T06:33:34.537Z,38.50
2017-11-08T06:36:01.129Z,34.10
2017-11-08T06:38:27.715Z,34.83
2017-11-08T06:40:54.317Z,33.37
2017-11-08T06:43:20.908Z,35.37
2017-11-08T06:45:47.491Z,34.03
2017-11-08T06:48:14.088Z,33.73
2017-11-08T06:50:40.670Z,34.10
2017-11-08T06:53:07.324Z,34.27
2017-11-08T06:55:35.872Z,34.37
2017-11-08T06:58:02.470Z,33.93
2017-11-08T07:00:29.074Z,38.53
2017-11-08T07:02:55.660Z,34.23
2017-11-08T07:05:22.262Z,35.60
2017-11-08T07:07:48.861Z,36.00
2017-11-08T07:10:15.479Z,39.77
2017-11-08T07:12:42.074Z,39.07
2017-11-08T07:15:08.670Z,37.60
2017-11-08T07:17:35.258Z,37.17
2017-11-08T07:20:01.850Z,36.23
2017-11-08T07:22:28.434Z,37.20
2017-11-08T07:24:55.030Z,40.30
2017-11-08T07:27:21.617Z,34.17
2017-11-08T07:29:48.243Z,36.07
2017-11-08T07:32:14.817Z,33.57
2017-11-08T07:34:41.397Z,32.60
2017-11-08T07:37:07.994Z,33.83
2017-11-08T07:39:34.579Z,34.43
2017-11-08T07:42:01.295Z,33.63
2017-11-08T07:44:27.886Z,37.53
2017-11-08T07:46:54.462Z,31.07
2017-11-08T07:49:21.053Z,31.50
2017-11-08T07:51:47.636Z,32.80
2017-11-08T07:54:20.050Z,33.37
2017-11-08T07:56:46.638Z,34.37
2017-11-08T07:59:13.221Z,33.60
2017-11-08T08:01:39.815Z,38.33
2017-11-08T08:04:06.402Z,35.63
2017-11-08T08:06:33.054Z,36.77
2017-11-08T08:08:59.683Z,38.70
2017-11-08T08:11:26.511Z,35.50
2017-11-08T08:13:59.058Z,36.40
2017-11-08T08:16:25.638Z,39.87
2017-11-08T08:18:52.230Z,37.23
2017-11-08T08:21:23.652Z,40.93
2017-11-08T08:23:50.234Z,38.10
2017-11-08T08:26:16.831Z,41.47
2017-11-08T08:28:43.422Z,35.07
2017-11-08T08:31:10.018Z,36.90
2017-11-08T08:33:36.602Z,35.57
2017-11-08T08:36:03.206Z,38.30
2017-11-08T08:38:29.813Z,32.87
2017-11-08T08:40:56.400Z,36.73
2017-11-08T08:43:22.996Z,35.23
2017-11-08T08:45:49.578Z,35.10
2017-11-08T08:48:16.179Z,32.97
2017-11-08T08:50:42.765Z,37.27
2017-11-08T08:53:09.358Z,36.33
2017-11-08T08:55:35.950Z,33.40
2017-11-08T08:58:02.547Z,33.97
2017-11-08T09:00:29.153Z,35.63
2017-11-08T09:02:55.737Z,35.70
2017-11-08T09:05:22.322Z,35.40
2017-11-08T09:07:49.756Z,31.43
2017-11-08T09:10:16.335Z,32.20
2017-11-08T09:12:42.927Z,35.40
2017-11-08T09:15:09.522Z,31.77
2017-11-08T09:17:36.121Z,37.33
2017-11-08T09:20:02.710Z,29.83
2017-11-08T09:22:29.294Z,40.37
2017-11-08T09:24:56.083Z,34.80
2017-11-08T09:27:22.670Z,34.53
2017-11-08T09:29:50.144Z,34.97
2017-11-08T09:32:16.717Z,33.10
2017-11-08T09:34:46.234Z,37.40
2017-11-08T09:37:12.818Z,36.80
2017-11-08T09:39:39.406Z,38.13
2017-11-08T09:42:20.715Z,35.63
2017-11-08T09:44:47.296Z,34.37
2017-11-08T09:47:13.889Z,41.20
2017-11-08T09:49:40.482Z,40.67
2017-11-08T09:52:07.082Z,41.77
2017-11-08T09:54:33.666Z,41.67
2017-11-08T09:57:06.115Z,43.87
2017-11-08T09:59:37.573Z,42.80
2017-11-08T10:02:05.961Z,40.70
2017-11-08T10:04:32.550Z,42.53
2017-11-08T10:06:59.134Z,44.37
2017-11-08T10:09:29.746Z,38.73
2017-11-08T10:11:56.283Z,44.37
2017-11-08T10:14:22.893Z,41.33
2017-11-08T10:16:49.473Z,40.30
2017-11-08T10:19:16.065Z,40.53
2017-11-08T10:21:44.466Z,41.10
2017-11-08T10:24:11.169Z,45.23
2017-11-08T10:26:37.741Z,42.27
2017-11-08T10:29:04.334Z,45.13
2017-11-08T10:31:30.966Z,44.83
2017-11-08T10:33:57.567Z,48.90
2017-11-08T10:36:24.152Z,41.40
2017-11-08T10:38:50.758Z,47.53
2017-11-08T10:41:17.358Z,49.73
2017-11-08T10:43:43.907Z,47.17
2017-11-08T10:46:10.502Z,50.10
2017-11-08T10:48:37.871Z,50.23
2017-11-08T10:51:04.467Z,52.97
2017-11-08T10:53:31.050Z,57.83
2017-11-08T10:55:57.638Z,55.40
2017-11-08T10:58:24.226Z,51.80
2017-11-08T11:00:50.823Z,54.33
2017-11-08T11:03:17.403Z,58.80
2017-11-08T11:05:44.002Z,64.50
2017-11-08T11:08:10.607Z,58.20
2017-11-08T11:10:37.202Z,57.77
2017-11-08T11:13:03.791Z,60.37
2017-11-08T11:15:30.407Z,61.63
2017-11-08T11:17:56.984Z,65.73
2017-11-08T11:20:23.572Z,68.67
2017-11-08T11:22:50.171Z,65.30
2017-11-08T11:25:16.787Z,68.33
2017-11-08T11:27:43.370Z,70.80
2017-11-08T11:30:09.979Z,66.27
2017-11-08T11:32:42.143Z,66.30
2017-11-08T11:35:08.728Z,66.20
2017-11-08T11:37:40.825Z,73.37
2017-11-08T11:40:07.422Z,69.50
2017-11-08T11:42:34.006Z,66.77
2017-11-08T11:45:00.606Z,67.83
2017-11-08T11:47:27.197Z,72.43
2017-11-08T11:49:53.780Z,64.80
2017-11-08T11:52:20.371Z,65.90
2017-11-08T11:54:46.958Z,71.00
2017-11-08T11:57:13.552Z,66.20
2017-11-08T11:59:40.159Z,70.97
2017-11-08T12:02:06.764Z,66.60
2017-11-08T12:04:33.359Z,72.23
2017-11-08T12:06:59.946Z,66.83
2017-11-08T12:09:26.543Z,66.37
2017-11-08T12:11:53.140Z,73.83
2017-11-08T12:14:19.730Z,69.10
2017-11-08T12:16:46.323Z,74.30
2017-11-08T12:19:12.918Z,72.90
2017-11-08T12:21:39.506Z,67.40
2017-11-08T12:24:06.087Z,67.33
2017-11-08T12:26:32.682Z,78.67
2017-11-08T12:28:59.276Z,73.87
2017-11-08T12:31:25.866Z,65.73
2017-11-08T12:33:52.447Z,77.93
2017-11-08T12:36:19.042Z,69.23
2017-11-08T12:38:45.624Z,71.47
2017-11-08T12:41:12.219Z,71.13
2017-11-08T12:43:40.507Z,74.90
2017-11-08T12:46:07.106Z,74.33
2017-11-08T12:48:33.732Z,80.83
2017-11-08T12:51:00.329Z,91.83
2017-11-08T12:53:26.913Z,80.47
2017-11-08T12:55:53.495Z,89.33
2017-11-08T12:58:20.087Z,99.17
2017-11-08T13:00:46.666Z,97.20
2017-11-08T13:03:13.263Z,90.23
2017-11-08T13:05:41.736Z,95.20
2017-11-08T13:08:08.368Z,100.83
2017-11-08T13:10:40.779Z,111.50
2017-11-08T13:13:07.375Z,100.57
2017-11-08T13:15:33.975Z,110.07
2017-11-08T13:18:00.558Z,98.53
2017-11-08T13:20:27.170Z,105.03
2017-11-08T13:22:53.762Z,108.47
2017-11-08T13:25:20.351Z,99.27
2017-11-08T13:27:46.954Z,107.70
2017-11-08T13:30:13.566Z,101.23
2017-11-08T13:32:40.158Z,104.27
2017-11-08T13:35:06.746Z,100.80
2017-11-08T13:37:33.335Z,98.63
2017-11-08T13:40:14.683Z,98.40
2017-11-08T13:42:41.286Z,109.30
2017-11-08T13:45:09.638Z,101.13
2017-11-08T13:47:36.250Z,107.10
2017-11-08T13:50:02.840Z,106.93
2017-11-08T13:52:29.440Z,112.50
2017-11-08T13:54:56.047Z,113.93
2017-11-08T13:57:22.642Z,102.77
2017-11-08T13:59:49.247Z,101.87
2017-11-08T14:02:15.831Z,105.70
2017-11-08T14:04:42.441Z,102.33
2017-11-08T14:07:09.026Z,108.20
2017-11-08T14:09:35.622Z,100.20
2017-11-08T14:12:02.224Z,107.37
2017-11-08T14:14:28.809Z,110.73
2017-11-08T14:16:55.403Z,105.77
2017-11-08T14:19:21.995Z,101.33
2017-11-08T14:21:48.606Z,94.77
2017-11-08T14:24:15.197Z,101.63
2017-11-08T14:26:41.787Z,109.47
2017-11-08T14:29:08.383Z,112.33
2017-11-08T14:31:34.983Z,110.00
2017-11-08T14:34:01.573Z,96.53
2017-11-08T14:36:28.158Z,95.83
2017-11-08T14:38:54.771Z,103.83
2017-11-08T14:41:21.360Z,112.90
2017-11-08T14:43:47.978Z,110.87
2017-11-08T14:46:14.587Z,105.97
2017-11-08T14:48:41.187Z,106.23
2017-11-08T14:51:07.875Z,93.00
2017-11-08T14:53:40.214Z,103.23
2017-11-08T14:56:06.815Z,107.13
2017-11-08T14:58:33.402Z,100.50
2017-11-08T15:01:00.302Z,103.23
2017-11-08T15:03:26.877Z,96.23
2017-11-08T15:05:53.471Z,92.80
2017-11-08T15:08:20.067Z,96.63
2017-11-08T15:10:46.653Z,96.43
2017-11-08T15:13:13.246Z,91.13
2017-11-08T15:15:39.823Z,92.30
2017-11-08T15:18:06.425Z,93.57
2017-11-08T15:20:33.006Z,95.97
2017-11-08T15:22:59.590Z,85.50
2017-11-08T15:25:26.184Z,95.07
2017-11-08T15:27:52.782Z,93.13
2017-11-08T15:30:25.140Z,100.30
2017-11-08T15:32:51.718Z,90.83
2017-11-08T15:35:18.310Z,89.83
2017-11-08T15:37:44.907Z,89.70
2017-11-08T15:40:16.478Z,80.43
2017-11-08T15:42:43.070Z,82.13
2017-11-08T15:45:09.650Z,93.53
2017-11-08T15:47:37.202Z,85.33
2017-11-08T15:50:03.786Z,90.87
2017-11-08T15:52:30.376Z,92.43
2017-11-08T15:54:56.964Z,98.97
2017-11-08T15:57:23.542Z,94.47
2017-11-08T15:59:50.135Z,90.47
2017-11-08T16:02:18.459Z,110.10
2017-11-08T16:04:45.094Z,121.37
2017-11-08T16:07:11.689Z,145.00
2017-11-08T16:09:38.285Z,117.13
2017-11-08T16:12:10.768Z,114.27
2017-11-08T16:14:37.360Z,96.30
2017-11-08T16:17:03.956Z,88.40
2017-11-08T16:19:30.585Z,82.97
2017-11-08T16:21:57.216Z,81.53
2017-11-08T16:24:23.799Z,81.70
2017-11-08T16:26:50.393Z,89.13
2017-11-08T16:29:16.991Z,90.37
2017-11-08T16:31:46.507Z,81.43
2017-11-08T16:34:13.099Z,77.63
2017-11-08T16:36:39.678Z,79.47
2017-11-08T16:39:06.336Z,79.70
2017-11-08T16:41:32.918Z,76.07
2017-11-08T16:43:59.505Z,80.30
2017-11-08T16:46:26.100Z,77.30
2017-11-08T16:48:52.684Z,75.00
2017-11-08T16:51:19.275Z,84.60
2017-11-08T16:53:45.891Z,80.80
2017-11-08T16:56:12.507Z,76.77
2017-11-08T16:58:39.100Z,82.90
2017-11-08T17:01:05.678Z,80.73
2017-11-08T17:03:32.276Z,79.10
2017-11-08T17:05:58.867Z,78.27
2017-11-08T17:08:25.459Z,77.07
2017-11-08T17:10:52.062Z,73.30
2017-11-08T17:13:18.740Z,77.40
2017-11-08T17:15:45.367Z,71.30
2017-11-08T17:18:11.946Z,84.70
2017-11-08T17:20:38.542Z,73.33
2017-11-08T17:23:05.127Z,75.17
2017-11-08T17:25:31.714Z,76.97
2017-11-08T17:27:58.302Z,77.33
2017-11-08T17:30:24.930Z,71.03
2017-11-08T17:32:51.511Z,73.93
2017-11-08T17:35:18.099Z,81.57
2017-11-08T17:37:44.687Z,77.03
2017-11-08T17:40:11.271Z,80.10
2017-11-08T17:42:37.989Z,72.33
2017-11-08T17:45:04.570Z,84.40
2017-11-08T17:47:31.186Z,80.37
2017-11-08T17:49:57.783Z,79.67
2017-11-08T17:52:24.378Z,79.27
2017-11-08T17:54:50.981Z,82.80
2017-11-08T17:57:17.570Z,84.23
2017-11-08T17:59:44.167Z,78.23
2017-11-08T18:02:10.764Z,83.90
2017-11-08T18:04:37.410Z,84.97
2017-11-08T18:07:03.990Z,95.33
2017-11-08T18:09:30.583Z,99.10
2017-11-08T18:11:57.182Z,96.20
2017-11-08T18:14:23.799Z,90.80
2017-11-08T18:16:50.386Z,91.90
2017-11-08T18:19:16.997Z,92.00
2017-11-08T18:21:43.568Z,97.40
2017-11-08T18:24:10.159Z,83.70
2017-11-08T18:26:36.748Z,98.47
2017-11-08T18:29:03.350Z,101.77
2017-11-08T18:31:29.940Z,88.53
2017-11-08T18:33:56.530Z,99.53
2017-11-08T18:36:23.126Z,100.77
2017-11-08T18:38:49.743Z,93.67
2017-11-08T18:41:16.323Z,99.40
2017-11-08T18:43:42.913Z,100.13
2017-11-08T18:46:09.516Z,113.93
2017-11-08T18:48:36.095Z,96.77
2017-11-08T18:51:02.695Z,102.77
2017-11-08T18:53:29.393Z,106.03
2017-11-08T18:55:55.966Z,109.53
2017-11-08T18:58:22.566Z,111.63
2017-11-08T19:00:49.166Z,104.80
2017-11-08T19:03:15.769Z,117.17
2017-11-08T19:05:42.358Z,112.03
2017-11-08T19:08:08.960Z,115.30
2017-11-08T19:10:35.556Z,113.50
2017-11-08T19:13:02.143Z,117.13
2017-11-08T19:15:28.746Z,103.93
2017-11-08T19:17:55.356Z,108.60
2017-11-08T19:20:21.938Z,121.30
2017-11-08T19:22:48.527Z,116.00
2017-11-08T19:25:15.131Z,119.50
2017-11-08T19:27:41.751Z,121.27
2017-11-08T19:30:08.327Z,121.20
2017-11-08T19:32:34.928Z,114.83
2017-11-08T19:35:01.512Z,138.43
2017-11-08T19:37:28.111Z,108.73
2017-11-08T19:39:54.694Z,125.43
2017-11-08T19:42:21.288Z,131.80
2017-11-08T19:44:47.887Z,133.77
2017-11-08T19:47:14.470Z,131.97
2017-11-08T19:49:41.097Z,137.30
2017-11-08T19:52:07.687Z,123.80
2017-11-08T19:54:34.279Z,120.73
2017-11-08T19:57:00.884Z,129.27
2017-11-08T19:59:27.511Z,136.80
2017-11-08T20:01:54.222Z,133.27
2017-11-08T20:04:20.812Z,118.27
2017-11-08T20:06:47.398Z,118.00
2017-11-08T20:09:14.006Z,131.53
2017-11-08T20:11:40.631Z,119.90
2017-11-08T20:14:07.211Z,133.13
2017-11-08T20:16:33.832Z,119.97
2017-11-08T20:19:00.427Z,135.47
2017-11-08T20:21:27.015Z,139.10
2017-11-08T20:23:53.651Z,143.20
2017-11-08T20:26:20.242Z,127.83
2017-11-08T20:28:46.840Z,133.90
2017-11-08T21:14:52.978Z,140.57
2017-11-08T21:17:19.575Z,138.50
2017-11-08T21:19:46.190Z,133.23
2017-11-08T21:22:12.784Z,144.23
2017-11-08T21:24:39.376Z,142.53
2017-11-08T21:27:05.983Z,152.30
2017-11-08T21:29:32.559Z,141.50
2017-11-08T21:31:59.162Z,150.03
2017-11-08T21:34:25.751Z,157.87
2017-11-08T21:36:52.380Z,152.07
2017-11-08T21:39:18.967Z,139.37
2017-11-08T21:41:45.563Z,151.47
2017-11-08T21:44:12.158Z,150.90
2017-11-08T21:46:38.751Z,172.00
2017-11-08T21:49:05.355Z,138.33
2017-11-08T21:51:31.936Z,133.93
2017-11-08T21:53:58.546Z,152.80
2017-11-08T21:56:25.147Z,140.90
2017-11-08T21:58:51.753Z,135.50
2017-11-08T22:01:18.346Z,142.10
2017-11-08T22:03:44.934Z,133.73
2017-11-08T22:06:11.531Z,145.20
2017-11-08T22:08:38.132Z,143.23
2017-11-08T22:11:04.730Z,138.67
2017-11-08T22:13:31.323Z,146.40
2017-11-08T22:15:57.915Z,134.63
2017-11-08T22:18:24.506Z,142.40
2017-11-08T22:20:51.123Z,137.97
2017-11-08T22:23:17.733Z,137.63
2017-11-08T22:25:44.315Z,130.43
2017-11-08T22:28:10.928Z,131.50
2017-11-08T22:30:37.514Z,130.70
2017-11-08T22:33:04.110Z,125.10
2017-11-08T22:35:30.707Z,144.10
2017-11-08T22:37:57.299Z,135.53
2017-11-08T22:40:23.929Z,121.57
2017-11-08T22:42:50.526Z,132.17
2017-11-08T22:45:17.139Z,134.53
2017-11-08T22:47:43.736Z,127.90
2017-11-08T22:50:10.319Z,128.53
2017-11-08T22:52:36.914Z,130.10
2017-11-08T22:55:03.498Z,134.53
2017-11-08T22:57:30.147Z,121.97
2017-11-08T22:59:56.730Z,120.30
2017-11-08T23:02:23.335Z,125.07
2017-11-08T23:04:49.923Z,130.93
2017-11-08T23:07:16.515Z,140.70
2017-11-08T23:09:43.115Z,128.50
2017-11-08T23:12:10.440Z,130.60
2017-11-08T23:14:37.035Z,124.70
2017-11-08T23:17:03.625Z,125.23
2017-11-08T23:19:30.231Z,120.77
2017-11-08T23:21:56.823Z,132.67
2017-11-08T23:24:23.412Z,128.83
2017-11-08T23:26:50.011Z,121.47
2017-11-08T23:29:16.606Z,115.93
2017-11-08T23:31:43.210Z,130.50
2017-11-08T23:34:09.802Z,119.63
2017-11-08T23:36:36.410Z,117.50
2017-11-08T23:39:03.015Z,127.63
2017-11-08T23:41:29.595Z,127.67
2017-11-08T23:43:56.199Z,118.67
2017-11-08T23:46:22.788Z,127.47
2017-11-08T23:48:49.385Z,119.23
2017-11-08T23:51:15.980Z,125.67
2017-11-08T23:53:44.436Z,117.77
2017-11-08T23:56:11.025Z,125.67
2017-11-08T23:58:37.631Z,126.70
